Ingenio La Esperanza, Argentina
Current Conditions -  °F | °C
As of 8:00 AM on Thursday 18 Dec 2014 (Local Time) from SASJ Reporting Station
Broken Clouds Broken Clouds  
Wind Chill: 68°   Ceiling: 10000
Heat Index: 68°   Visibility: 6mi
Dew Point: 64°   Wind: 0mph
Humidity: 88%   Direction: NA
Pressure: 30.03"   Gusts: NA
Location:  24.22°S, 64.85°W
Report Text: SASJ 181100Z 00000KT 9999 FEW030 BKN10020/18 Q1017
Loading
Personal Weather Stations






























Interactive Weather Map New forecast layout! Learn more

10-Day Weather Forecast

Advertisements
Track Severe Weather on mobile